Time;durP1;ratioP1;P1;durP2;ratioP2;P2;SDS_P1;SDS_P2;PMS_P1;PMS_P2;Temp;Humidity;BMP_temperature;BMP_pressure;BME280_temperature;BME280_humidity;BME280_pressure;Samples;Min_cycle;Max_cycle;Signal;HPM_P1;HPM_P2
2023/11/28 00:01:39;;;;;;;2.53;1.30;;;;;;;4.39;100.00;94016.94;5077227;28;20202;-71
2023/11/28 00:04:05;;;;;;;1.57;1.23;;;;;;;4.43;100.00;94010.34;5077506;28;20214;-71
2023/11/28 00:06:32;;;;;;;1.63;1.30;;;;;;;4.44;100.00;94011.97;5077642;28;20203;-70
2023/11/28 00:08:58;;;;;;;2.57;1.60;;;;;;;4.48;100.00;94010.56;5076551;28;20235;-71
2023/11/28 00:11:25;;;;;;;2.30;1.20;;;;;;;4.49;100.00;93999.97;5076958;28;20207;-70
2023/11/28 00:13:52;;;;;;;2.50;1.67;;;;;;;4.53;100.00;93995.16;5077680;28;20562;-71
2023/11/28 00:16:20;;;;;;;1.40;1.03;;;;;;;4.63;100.00;93996.41;5076723;28;20298;-71
2023/11/28 00:18:46;;;;;;;2.00;1.50;;;;;;;4.68;100.00;93988.00;5077173;28;20231;-70
2023/11/28 00:21:13;;;;;;;3.07;1.50;;;;;;;4.71;100.00;93980.59;5077440;28;20208;-71
2023/11/28 00:23:40;;;;;;;1.37;1.20;;;;;;;4.61;100.00;93981.94;5076823;28;20207;-71
2023/11/28 00:26:07;;;;;;;1.57;1.10;;;;;;;4.60;100.00;93977.75;5076604;28;20218;-71
2023/11/28 00:28:33;;;;;;;2.00;1.30;;;;;;;4.69;100.00;93976.56;5077478;28;20234;-70
2023/11/28 00:31:00;;;;;;;2.83;1.23;;;;;;;4.61;100.00;93977.56;5076651;28;20974;-71
2023/11/28 00:33:28;;;;;;;1.40;1.10;;;;;;;4.71;100.00;93964.94;5076887;28;20243;-70
2023/11/28 00:35:55;;;;;;;1.77;1.20;;;;;;;4.70;100.00;93967.72;5076676;28;20204;-71
2023/11/28 00:38:22;;;;;;;1.13;1.03;;;;;;;4.63;100.00;93977.34;5076435;28;20219;-71
2023/11/28 00:40:48;;;;;;;1.83;1.20;;;;;;;4.48;100.00;93967.06;5076553;28;20253;-71
2023/11/28 00:43:15;;;;;;;2.07;1.03;;;;;;;4.58;100.00;93972.72;5077118;28;20203;-70
2023/11/28 00:45:42;;;;;;;1.10;1.00;;;;;;;4.74;100.00;93972.38;5076833;28;20207;-70
2023/11/28 00:48:08;;;;;;;1.97;1.40;;;;;;;4.66;100.00;93963.91;5076194;28;20231;-71
2023/11/28 00:50:36;;;;;;;2.17;1.20;;;;;;;4.72;100.00;93966.53;5076651;28;20233;-71
2023/11/28 00:53:03;;;;;;;2.03;1.17;;;;;;;4.70;100.00;93972.94;5076807;28;20207;-71
2023/11/28 00:55:30;;;;;;;1.00;0.90;;;;;;;4.59;100.00;93973.53;5076557;28;20211;-71
2023/11/28 00:57:56;;;;;;;1.07;0.97;;;;;;;4.67;100.00;93968.94;5076502;28;20227;-70
2023/11/28 01:00:23;;;;;;;1.73;1.20;;;;;;;4.58;100.00;93966.69;5077272;28;20202;-71
2023/11/28 01:02:50;;;;;;;1.37;0.90;;;;;;;4.75;100.00;93971.38;5075442;28;20208;-71
2023/11/28 01:05:16;;;;;;;1.03;0.90;;;;;;;4.77;100.00;93960.75;5076987;28;20671;-70
2023/11/28 01:07:45;;;;;;;1.60;0.83;;;;;;;4.70;100.00;93959.91;5076339;28;20960;-71
2023/11/28 01:10:12;;;;;;;1.23;1.00;;;;;;;4.70;100.00;93970.34;5076247;28;20232;-69
2023/11/28 01:12:39;;;;;;;1.47;1.00;;;;;;;4.79;100.00;93974.41;5074474;28;20212;-69
2023/11/28 01:15:08;;;;;;;1.10;1.00;;;;;;;4.79;100.00;93964.75;5077057;28;20248;-69
2023/11/28 01:17:34;;;;;;;2.53;1.60;;;;;;;4.75;100.00;93966.16;5075852;28;20203;-69
2023/11/28 01:20:01;;;;;;;1.17;0.90;;;;;;;4.72;100.00;93973.56;5075940;28;20950;-69
2023/11/28 01:22:27;;;;;;;1.43;1.03;;;;;;;4.80;100.00;93975.97;5076515;28;20213;-69
2023/11/28 01:24:56;;;;;;;1.20;1.03;;;;;;;4.92;100.00;93970.78;5076919;28;20234;-69
2023/11/28 01:27:22;;;;;;;1.30;1.03;;;;;;;4.87;100.00;93961.97;5075863;28;20217;-69
2023/11/28 01:29:49;;;;;;;1.60;1.00;;;;;;;4.89;100.00;93963.38;5076095;28;20635;-69
2023/11/28 01:32:15;;;;;;;2.60;1.83;;;;;;;4.84;100.00;93957.94;5075840;28;20199;-69
2023/11/28 01:34:42;;;;;;;1.10;1.00;;;;;;;4.95;100.00;93956.56;5076039;28;20230;-69
2023/11/28 01:37:09;;;;;;;1.50;1.20;;;;;;;4.77;100.00;93958.13;5074894;28;20210;-69
2023/11/28 01:39:35;;;;;;;1.10;1.00;;;;;;;4.93;100.00;93964.59;5076334;28;20235;-69
2023/11/28 01:42:03;;;;;;;1.80;1.30;;;;;;;5.18;100.00;93965.63;5074656;28;20590;-69
2023/11/28 01:44:29;;;;;;;1.63;1.20;;;;;;;4.88;100.00;93959.16;5075767;28;20211;-69
2023/11/28 01:46:56;;;;;;;1.03;0.90;;;;;;;4.84;100.00;93957.16;5075117;28;20207;-69
2023/11/28 01:49:23;;;;;;;2.80;1.07;;;;;;;4.93;100.00;93954.16;5075228;28;20234;-69
2023/11/28 01:51:49;;;;;;;1.30;0.90;;;;;;;5.14;100.00;93947.94;5075820;28;20211;-69
2023/11/28 01:54:17;;;;;;;0.83;0.80;;;;;;;5.01;100.00;93953.94;5075613;28;20209;-69
2023/11/28 01:56:44;;;;;;;1.23;1.00;;;;;;;5.01;100.00;93948.72;5075550;28;20222;-69
2023/11/28 01:59:14;;;;;;;0.80;0.80;;;;;;;5.14;100.00;93945.34;5074910;28;20605;-69
2023/11/28 02:01:42;;;;;;;1.33;1.17;;;;;;;5.10;100.00;93947.53;5076006;28;20230;-69
2023/11/28 02:04:09;;;;;;;0.90;0.83;;;;;;;5.03;100.00;93941.53;5075411;28;20204;-69
2023/11/28 02:06:35;;;;;;;1.27;1.00;;;;;;;5.08;100.00;93939.13;5074857;28;20242;-69
2023/11/28 02:09:03;;;;;;;1.60;0.80;;;;;;;4.97;100.00;93939.69;5075440;28;20233;-69
2023/11/28 02:11:29;;;;;;;1.37;1.03;;;;;;;5.09;100.00;93945.97;5076320;28;21026;-69
2023/11/28 02:13:56;;;;;;;0.97;0.80;;;;;;;4.85;100.00;93949.13;5074388;28;20294;-69
2023/11/28 02:16:24;;;;;;;0.60;0.60;;;;;;;5.20;100.00;93952.38;5074871;28;20218;-69
2023/11/28 02:18:50;;;;;;;0.80;0.80;;;;;;;5.11;100.00;93943.13;5076186;28;20230;-69
2023/11/28 02:21:17;;;;;;;1.33;0.90;;;;;;;5.04;100.00;93934.47;5075026;28;20214;-69
2023/11/28 02:23:43;;;;;;;1.43;1.30;;;;;;;5.14;100.00;93934.91;5074758;28;20209;-69
2023/11/28 02:26:25;;;;;;;0.80;0.80;;;;;;;5.32;100.00;93933.31;5074987;28;20210;-69
2023/11/28 02:28:52;;;;;;;0.90;0.80;;;;;;;5.21;100.00;93938.34;5075730;28;20230;-69
2023/11/28 02:31:19;;;;;;;0.67;0.63;;;;;;;5.06;100.00;93932.50;5075683;28;20224;-69
2023/11/28 02:33:45;;;;;;;0.93;0.93;;;;;;;5.04;100.00;93927.47;5075431;28;20687;-69
2023/11/28 02:36:14;;;;;;;0.90;0.70;;;;;;;5.35;100.00;93926.91;5074514;28;20218;-69
2023/11/28 02:38:41;;;;;;;0.80;0.80;;;;;;;5.11;100.00;93923.06;5075577;28;20266;-69
2023/11/28 02:41:07;;;;;;;0.90;0.80;;;;;;;5.16;100.00;93914.63;5074921;28;20665;-69
2023/11/28 02:43:35;;;;;;;0.60;0.50;;;;;;;5.11;100.00;93928.28;5075673;28;20208;-69
2023/11/28 02:46:02;;;;;;;0.60;0.60;;;;;;;5.13;100.00;93921.06;5074576;28;20214;-69
2023/11/28 02:48:28;;;;;;;0.67;0.67;;;;;;;5.00;100.00;93915.00;5075124;28;20227;-69
2023/11/28 02:50:55;;;;;;;0.80;0.80;;;;;;;5.20;100.00;93905.41;5075524;28;20234;-69
2023/11/28 02:53:21;;;;;;;0.90;0.80;;;;;;;5.26;100.00;93894.16;5075035;28;20203;-69
2023/11/28 02:55:48;;;;;;;1.70;0.63;;;;;;;5.24;100.00;93901.38;5075187;28;20211;-69
2023/11/28 02:58:14;;;;;;;1.07;0.90;;;;;;;5.20;100.00;93894.97;5075034;28;20224;-69
2023/11/28 03:00:42;;;;;;;0.83;0.70;;;;;;;5.18;100.00;93896.94;5076826;28;20200;-69
2023/11/28 03:03:09;;;;;;;1.10;0.93;;;;;;;5.14;100.00;93899.19;5078376;28;20207;-69
2023/11/28 03:05:36;;;;;;;0.80;0.80;;;;;;;5.21;100.00;93893.97;5077512;28;20203;-69
2023/11/28 03:08:02;;;;;;;0.87;0.83;;;;;;;5.14;100.00;93883.53;5078026;28;20247;-69
2023/11/28 03:10:29;;;;;;;0.80;0.70;;;;;;;5.26;100.00;93891.56;5078328;28;20698;-69
2023/11/28 03:12:55;;;;;;;1.07;0.80;;;;;;;5.16;100.00;93884.09;5078021;28;20218;-69
2023/11/28 03:15:22;;;;;;;2.60;1.00;;;;;;;5.19;100.00;93883.69;5078329;28;20346;-69
2023/11/28 03:17:50;;;;;;;2.23;1.30;;;;;;;5.42;100.00;93878.88;5077645;28;20211;-69
2023/11/28 03:20:17;;;;;;;0.70;0.70;;;;;;;5.27;100.00;93880.09;5077814;28;20733;-69
2023/11/28 03:22:43;;;;;;;1.63;0.90;;;;;;;5.14;100.00;93873.09;5078906;28;20207;-69
2023/11/28 03:25:12;;;;;;;0.67;0.63;;;;;;;5.14;100.00;93870.47;5078250;28;20213;-69
2023/11/28 03:27:39;;;;;;;0.67;0.67;;;;;;;5.18;100.00;93873.47;5078139;28;20211;-69
2023/11/28 03:30:06;;;;;;;0.80;0.60;;;;;;;5.16;100.00;93868.44;5078981;28;20933;-69
2023/11/28 03:32:33;;;;;;;0.63;0.60;;;;;;;5.13;100.00;93861.03;5077825;28;20211;-69
2023/11/28 03:35:02;;;;;;;0.70;0.60;;;;;;;5.35;100.00;93865.03;5078091;28;20324;-69
2023/11/28 03:37:29;;;;;;;0.60;0.60;;;;;;;5.10;100.00;93864.03;5077063;28;20203;-69
2023/11/28 03:39:55;;;;;;;0.70;0.70;;;;;;;5.21;100.00;93860.81;5078805;28;20230;-69
2023/11/28 03:42:22;;;;;;;1.63;1.03;;;;;;;5.27;100.00;93857.41;5077488;28;20214;-69
2023/11/28 03:44:48;;;;;;;0.70;0.70;;;;;;;5.25;100.00;93856.78;5078019;28;20580;-69
2023/11/28 03:47:15;;;;;;;0.40;0.40;;;;;;;5.19;100.00;93852.38;5076676;28;20927;-69
2023/11/28 03:49:41;;;;;;;0.70;0.70;;;;;;;5.27;100.00;93857.41;5078500;28;20231;-69
2023/11/28 03:52:09;;;;;;;0.70;0.70;;;;;;;5.51;100.00;93846.31;5077448;28;20210;-69
2023/11/28 03:54:36;;;;;;;0.70;0.70;;;;;;;5.28;100.00;93845.94;5077974;28;20207;-69
2023/11/28 03:57:02;;;;;;;0.83;0.80;;;;;;;5.23;100.00;93842.34;5076745;28;20630;-69
2023/11/28 03:59:29;;;;;;;1.17;0.83;;;;;;;5.41;100.00;93848.56;5077777;28;20223;-69
2023/11/28 04:01:55;;;;;;;1.27;0.90;;;;;;;5.43;100.00;93838.69;5077324;28;20210;-69
2023/11/28 04:04:22;;;;;;;1.60;1.27;;;;;;;5.52;100.00;93837.47;5077633;28;20208;-69
2023/11/28 04:06:48;;;;;;;1.23;0.80;;;;;;;5.37;100.00;93834.28;5076923;28;20203;-70
2023/11/28 04:09:16;;;;;;;1.97;0.93;;;;;;;5.51;100.00;93835.84;5077688;28;20219;-69
2023/11/28 04:11:43;;;;;;;1.07;0.97;;;;;;;5.43;100.00;93832.69;5076925;28;20608;-69
2023/11/28 04:14:09;;;;;;;0.80;0.73;;;;;;;5.21;100.00;93834.72;5076335;28;20310;-69
2023/11/28 04:16:36;;;;;;;1.20;1.10;;;;;;;5.37;100.00;93825.66;5077510;28;20200;-69
2023/11/28 04:19:02;;;;;;;0.77;0.77;;;;;;;5.47;100.00;93821.59;5077111;28;20222;-69
2023/11/28 04:21:29;;;;;;;1.13;1.03;;;;;;;5.46;100.00;93820.03;5076732;28;20292;-69
2023/11/28 04:23:55;;;;;;;1.17;0.80;;;;;;;5.45;100.00;93811.38;5077179;28;20918;-69
2023/11/28 04:26:23;;;;;;;0.90;0.67;;;;;;;5.64;100.00;93815.75;5076453;28;20210;-69
2023/11/28 04:28:50;;;;;;;1.23;1.00;;;;;;;5.61;100.00;93805.72;5076635;28;20222;-69
2023/11/28 04:31:18;;;;;;;1.50;0.77;;;;;;;5.68;100.00;93803.88;5077258;28;20220;-69
2023/11/28 04:33:44;;;;;;;4.73;0.77;;;;;;;5.61;100.00;93799.69;5077045;28;20691;-69
2023/11/28 04:36:11;;;;;;;0.73;0.70;;;;;;;5.51;100.00;93799.28;5076594;28;20203;-69
2023/11/28 04:38:38;;;;;;;1.13;0.90;;;;;;;5.35;100.00;93789.31;5076472;28;20226;-69
2023/11/28 04:41:05;;;;;;;2.60;1.10;;;;;;;5.50;100.00;93793.28;5077274;28;20279;-69
2023/11/28 04:43:33;;;;;;;1.13;0.90;;;;;;;5.61;100.00;93794.44;5077078;28;20203;-69
2023/11/28 04:45:59;;;;;;;0.83;0.80;;;;;;;5.43;100.00;93792.50;5077155;28;20405;-69
2023/11/28 04:48:26;;;;;;;1.00;0.77;;;;;;;5.46;100.00;93796.53;5075875;28;20216;-69
2023/11/28 04:50:52;;;;;;;1.37;0.90;;;;;;;5.54;100.00;93788.47;5077209;28;20219;-69
2023/11/28 04:53:19;;;;;;;1.73;1.03;;;;;;;5.48;100.00;93791.88;5076700;28;21197;-69
2023/11/28 04:55:45;;;;;;;1.17;0.80;;;;;;;5.49;100.00;93791.69;5077210;28;20199;-69
2023/11/28 04:58:12;;;;;;;0.77;0.77;;;;;;;5.41;100.00;93795.50;5075636;28;20222;-69
2023/11/28 05:00:40;;;;;;;0.77;0.67;;;;;;;5.69;100.00;93792.44;5077441;28;20206;-69
2023/11/28 05:03:06;;;;;;;1.00;0.90;;;;;;;5.54;100.00;93793.69;5076616;28;20203;-69
2023/11/28 05:05:33;;;;;;;0.90;0.90;;;;;;;5.54;100.00;93794.47;5076540;28;20669;-69
2023/11/28 05:07:59;;;;;;;2.33;0.87;;;;;;;5.41;100.00;93785.91;5076303;28;20230;-69
2023/11/28 05:10:26;;;;;;;1.03;0.93;;;;;;;5.34;100.00;93798.16;5076223;28;20223;-69
2023/11/28 05:12:53;;;;;;;0.57;0.50;;;;;;;5.37;100.00;93789.88;5075940;28;20569;-69
2023/11/28 05:15:19;;;;;;;0.57;0.57;;;;;;;5.50;100.00;93792.50;5076650;28;20834;-69
2023/11/28 05:17:47;;;;;;;0.90;0.80;;;;;;;5.78;100.00;93791.22;5076057;28;20695;-69
2023/11/28 05:20:14;;;;;;;1.73;0.80;;;;;;;5.55;100.00;93795.28;5075731;28;20696;-69
2023/11/28 05:22:40;;;;;;;1.10;1.00;;;;;;;5.45;100.00;93795.72;5077219;28;20317;-69
2023/11/28 05:25:08;;;;;;;0.53;0.53;;;;;;;5.46;100.00;93793.91;5076424;28;20214;-69
2023/11/28 05:27:34;;;;;;;1.23;0.93;;;;;;;5.55;100.00;93796.09;5075858;28;20199;-69
2023/11/28 05:30:01;;;;;;;0.70;0.60;;;;;;;5.34;100.00;93785.09;5076212;28;20294;-69
2023/11/28 05:32:28;;;;;;;0.60;0.60;;;;;;;5.49;100.00;93791.69;5076072;28;20580;-69
2023/11/28 05:34:55;;;;;;;0.73;0.70;;;;;;;5.64;100.00;93804.50;5075713;28;20206;-69
2023/11/28 05:37:23;;;;;;;0.90;0.70;;;;;;;5.47;100.00;93795.50;5075373;28;20294;-69
2023/11/28 05:39:50;;;;;;;1.50;0.60;;;;;;;5.44;100.00;93790.69;5075875;28;20229;-68
2023/11/28 05:42:17;;;;;;;1.63;0.77;;;;;;;5.53;100.00;93799.91;5075200;28;20196;-69
2023/11/28 05:44:43;;;;;;;0.93;0.80;;;;;;;5.47;100.00;93798.09;5075977;28;20363;-69
2023/11/28 05:47:10;;;;;;;0.90;0.77;;;;;;;5.42;100.00;93803.13;5075449;28;20201;-69
2023/11/28 05:49:36;;;;;;;0.60;0.60;;;;;;;5.37;100.00;93813.38;5075414;28;20226;-69
2023/11/28 05:52:05;;;;;;;0.70;0.60;;;;;;;5.51;100.00;93812.34;5075312;28;20597;-69
2023/11/28 05:54:31;;;;;;;0.70;0.67;;;;;;;5.43;100.00;93808.19;5075809;28;20279;-69
2023/11/28 05:56:58;;;;;;;1.23;0.83;;;;;;;5.26;100.00;93815.84;5074922;28;20203;-69
2023/11/28 05:59:25;;;;;;;1.03;0.97;;;;;;;5.41;100.00;93825.06;5074968;28;20224;-69
2023/11/28 06:01:59;;;;;;;0.77;0.77;;;;;;;5.61;100.00;93823.19;5075556;28;20196;-70
2023/11/28 06:04:26;;;;;;;1.10;0.93;;;;;;;5.53;100.00;93818.97;5075803;28;20207;-69
2023/11/28 06:06:53;;;;;;;1.07;0.80;;;;;;;5.37;100.00;93834.28;5075037;28;20204;-69
2023/11/28 06:09:23;;;;;;;0.80;0.77;;;;;;;5.67;100.00;93832.81;5075326;28;20225;-69
2023/11/28 06:11:50;;;;;;;0.80;0.73;;;;;;;5.47;100.00;93839.88;5075695;28;20269;-69
2023/11/28 06:14:16;;;;;;;0.70;0.70;;;;;;;5.39;100.00;93853.16;5075185;28;20204;-71
2023/11/28 06:16:43;;;;;;;1.07;0.80;;;;;;;5.40;100.00;93843.50;5074708;28;20203;-72
2023/11/28 06:19:09;;;;;;;1.90;1.10;;;;;;;5.29;100.00;93852.78;5076265;28;20235;-70
2023/11/28 06:21:36;;;;;;;1.60;1.00;;;;;;;5.35;100.00;93862.41;5075128;28;20200;-69
2023/11/28 06:24:03;;;;;;;1.70;1.10;;;;;;;5.48;100.00;93865.00;5075568;28;20226;-70
2023/11/28 06:26:31;;;;;;;0.87;0.87;;;;;;;5.56;100.00;93862.16;5074838;28;20216;-72
2023/11/28 06:28:57;;;;;;;1.20;0.80;;;;;;;5.38;100.00;93863.81;5075799;28;20229;-71
2023/11/28 06:31:24;;;;;;;1.10;0.80;;;;;;;5.28;100.00;93868.63;5075064;28;20230;-72
2023/11/28 06:33:51;;;;;;;0.77;0.60;;;;;;;5.30;100.00;93885.72;5075066;28;20216;-72
2023/11/28 06:36:18;;;;;;;0.90;0.90;;;;;;;5.35;100.00;93878.09;5076635;28;20199;-71
2023/11/28 06:38:45;;;;;;;0.70;0.70;;;;;;;5.46;100.00;93891.31;5079452;28;20353;-69
2023/11/28 06:41:11;;;;;;;1.40;1.07;;;;;;;5.44;100.00;93893.31;5079540;28;20824;-71
2023/11/28 06:43:39;;;;;;;1.23;1.00;;;;;;;5.53;100.00;93896.53;5078235;28;20673;-69
2023/11/28 06:46:06;;;;;;;2.10;1.13;;;;;;;5.51;100.00;93898.53;5078577;28;20214;-71
2023/11/28 06:48:33;;;;;;;0.97;0.90;;;;;;;5.50;100.00;93912.63;5079381;28;20219;-71
2023/11/28 06:51:00;;;;;;;1.17;0.97;;;;;;;5.50;100.00;93915.25;5077717;28;20229;-69
2023/11/28 06:53:27;;;;;;;0.80;0.80;;;;;;;5.38;100.00;93909.00;5077556;28;21185;-71
2023/11/28 06:55:53;;;;;;;1.43;0.87;;;;;;;5.42;100.00;93907.59;5078414;28;20222;-70
2023/11/28 06:58:20;;;;;;;1.40;1.00;;;;;;;5.42;100.00;93919.84;5076290;28;20921;-70
2023/11/28 07:00:48;;;;;;;1.13;0.77;;;;;;;5.61;100.00;93925.06;5078575;28;20196;-69
2023/11/28 07:03:15;;;;;;;1.17;1.07;;;;;;;5.56;100.00;93924.84;5077730;28;20219;-69
2023/11/28 07:05:41;;;;;;;1.17;0.80;;;;;;;5.49;100.00;93916.22;5078102;28;20226;-69
2023/11/28 07:08:08;;;;;;;1.20;0.70;;;;;;;5.33;100.00;93921.84;5076565;28;20223;-69
2023/11/28 07:10:34;;;;;;;2.43;0.93;;;;;;;5.62;100.00;93922.22;5077565;28;20213;-70
2023/11/28 07:13:01;;;;;;;1.60;1.30;;;;;;;5.61;100.00;93923.25;5076895;28;20226;-71
2023/11/28 07:15:28;;;;;;;0.60;0.60;;;;;;;5.55;100.00;93933.72;5077413;28;20633;-70
2023/11/28 07:17:56;;;;;;;1.10;1.00;;;;;;;5.82;100.00;93936.09;5077084;28;20227;-71
2023/11/28 07:20:22;;;;;;;1.23;1.13;;;;;;;5.58;100.00;93938.53;5077440;28;20219;-70
2023/11/28 07:22:48;;;;;;;1.03;0.87;;;;;;;5.56;100.00;93953.59;5077250;28;20863;-70
2023/11/28 07:25:15;;;;;;;1.30;1.07;;;;;;;5.76;100.00;93941.34;5076407;28;20226;-70
2023/11/28 07:27:42;;;;;;;1.83;0.87;;;;;;;5.73;100.00;93957.41;5075824;28;20206;-70
2023/11/28 07:30:09;;;;;;;1.20;1.10;;;;;;;5.78;100.00;93963.66;5077370;28;20719;-69
2023/11/28 07:32:36;;;;;;;2.23;0.87;;;;;;;5.58;100.00;93967.25;5077913;28;20215;-69
2023/11/28 07:35:05;;;;;;;1.23;0.93;;;;;;;5.73;100.00;93975.69;5078429;28;21416;-69
2023/11/28 07:37:32;;;;;;;2.40;1.67;;;;;;;5.61;100.00;93977.28;5077123;28;20203;-69
2023/11/28 07:39:58;;;;;;;1.43;1.20;;;;;;;5.74;100.00;93979.88;5077759;28;20716;-71
2023/11/28 07:42:24;;;;;;;1.87;1.10;;;;;;;5.73;100.00;93986.94;5077485;28;20223;-70
2023/11/28 07:44:51;;;;;;;3.10;1.87;;;;;;;5.49;100.00;94005.03;5077911;28;20211;-69
2023/11/28 07:47:17;;;;;;;2.07;1.57;;;;;;;5.45;100.00;94009.84;5077651;28;20207;-71
2023/11/28 07:49:44;;;;;;;2.17;1.70;;;;;;;5.40;100.00;94006.22;5077386;28;20223;-71
2023/11/28 07:52:12;;;;;;;2.10;1.27;;;;;;;5.48;100.00;94013.84;5077841;28;20234;-71
2023/11/28 07:54:39;;;;;;;4.13;1.80;;;;;;;5.27;100.00;94021.06;5077812;28;20207;-68
2023/11/28 07:57:06;;;;;;;0.70;0.70;;;;;;;5.29;100.00;94029.50;5077556;28;20216;-71
2023/11/28 07:59:32;;;;;;;0.80;0.80;;;;;;;5.28;100.00;94022.66;5076615;28;20234;-71
2023/11/28 08:01:59;;;;;;;1.23;0.83;;;;;;;5.34;100.00;94033.13;5077840;28;20196;-71
2023/11/28 08:04:25;;;;;;;0.60;0.60;;;;;;;5.11;100.00;94031.88;5077962;28;20207;-69
2023/11/28 08:06:52;;;;;;;1.90;0.60;;;;;;;5.18;100.00;94036.13;5076632;28;20203;-71
2023/11/28 08:09:19;;;;;;;0.57;0.57;;;;;;;5.27;100.00;94034.94;5076900;28;20705;-71
2023/11/28 08:11:49;;;;;;;0.50;0.50;;;;;;;5.14;100.00;94037.50;5077570;28;20229;-71
2023/11/28 08:14:16;;;;;;;0.93;0.57;;;;;;;5.10;100.00;94049.31;5077398;28;20208;-70
2023/11/28 08:16:42;;;;;;;1.97;0.80;;;;;;;5.05;100.00;94054.34;5076693;28;21082;-70
2023/11/28 08:19:09;;;;;;;1.00;0.90;;;;;;;5.06;100.00;94058.56;5077717;28;20219;-68
2023/11/28 08:21:35;;;;;;;1.20;1.10;;;;;;;4.87;100.00;94061.09;5077013;28;20204;-71
2023/11/28 08:24:02;;;;;;;0.50;0.50;;;;;;;4.90;100.00;94069.34;5076691;28;20200;-67
2023/11/28 08:26:30;;;;;;;0.70;0.53;;;;;;;4.90;100.00;94077.19;5076934;28;20207;-68
2023/11/28 08:28:56;;;;;;;1.70;0.40;;;;;;;4.84;100.00;94087.59;5076751;28;20226;-72
2023/11/28 08:31:23;;;;;;;1.00;0.70;;;;;;;4.89;100.00;94091.22;5077208;28;20211;-70
2023/11/28 08:33:50;;;;;;;0.73;0.60;;;;;;;4.81;100.00;94100.22;5077009;28;20215;-71
2023/11/28 08:36:17;;;;;;;0.57;0.57;;;;;;;4.69;100.00;94106.97;5077310;28;20688;-69
2023/11/28 08:38:43;;;;;;;1.40;0.93;;;;;;;4.65;100.00;94114.38;5076544;28;20223;-69
2023/11/28 08:41:11;;;;;;;1.03;0.80;;;;;;;4.82;100.00;94120.09;5076091;28;20208;-69
2023/11/28 08:43:39;;;;;;;0.60;0.60;;;;;;;4.60;100.00;94121.19;5075320;28;20218;-69
2023/11/28 08:46:06;;;;;;;0.40;0.40;;;;;;;4.32;100.00;94146.47;5075665;28;20271;-68
2023/11/28 08:48:33;;;;;;;1.07;0.90;;;;;;;4.16;100.00;94148.53;5076680;28;20345;-71
2023/11/28 08:51:00;;;;;;;0.50;0.50;;;;;;;4.01;100.00;94166.88;5076864;28;20673;-71
2023/11/28 08:53:27;;;;;;;0.60;0.60;;;;;;;3.94;100.00;94175.63;5076155;28;20810;-70
2023/11/28 08:55:53;;;;;;;0.50;0.50;;;;;;;3.95;100.00;94167.59;5076070;28;20203;-71
2023/11/28 08:58:19;;;;;;;0.63;0.50;;;;;;;3.86;100.00;94181.75;5075703;28;20314;-71
2023/11/28 09:00:47;;;;;;;0.60;0.50;;;;;;;3.84;100.00;94185.53;5076029;28;20214;-68
2023/11/28 09:03:14;;;;;;;2.40;1.10;;;;;;;3.75;100.00;94187.44;5076654;28;20577;-67
2023/11/28 09:05:40;;;;;;;0.50;0.50;;;;;;;3.61;100.00;94202.34;5076138;28;20205;-68
2023/11/28 09:08:07;;;;;;;0.70;0.70;;;;;;;3.68;100.00;94194.41;5076220;28;20229;-70
2023/11/28 09:10:34;;;;;;;0.70;0.70;;;;;;;3.68;100.00;94202.22;5075477;28;20209;-67
2023/11/28 09:13:00;;;;;;;0.80;0.70;;;;;;;3.63;100.00;94203.75;5075590;28;20223;-70
2023/11/28 09:15:27;;;;;;;0.60;0.60;;;;;;;3.69;100.00;94214.25;5076720;28;20224;-70
2023/11/28 09:17:55;;;;;;;0.60;0.60;;;;;;;3.67;100.00;94221.41;5075436;28;21234;-70
2023/11/28 09:20:21;;;;;;;1.03;0.93;;;;;;;3.61;100.00;94218.75;5076021;28;20253;-71
2023/11/28 09:22:48;;;;;;;1.03;0.70;;;;;;;3.56;100.00;94234.09;5075500;28;20246;-69
2023/11/28 09:25:15;;;;;;;1.07;0.97;;;;;;;3.55;100.00;94235.09;5076136;28;20211;-69
2023/11/28 09:27:41;;;;;;;0.90;0.90;;;;;;;3.61;100.00;94242.19;5074920;28;20692;-69
2023/11/28 09:30:09;;;;;;;0.83;0.70;;;;;;;3.70;100.00;94239.31;5076132;28;20197;-69
2023/11/28 09:32:35;;;;;;;2.10;0.80;;;;;;;3.58;100.00;94246.94;5074915;28;20253;-71
2023/11/28 09:35:03;;;;;;;0.93;0.83;;;;;;;3.62;100.00;94266.44;5075456;28;20238;-71
2023/11/28 09:37:30;;;;;;;0.80;0.80;;;;;;;3.42;100.00;94260.97;5075280;28;20209;-68
2023/11/28 09:39:56;;;;;;;0.80;0.80;;;;;;;3.48;100.00;94269.88;5075792;28;20232;-69
2023/11/28 09:42:30;;;;;;;0.60;0.60;;;;;;;3.40;100.00;94276.00;5075319;28;20555;-69
2023/11/28 09:45:04;;;;;;;0.50;0.50;;;;;;;3.43;100.00;94286.03;5075406;28;20213;-69
2023/11/28 09:47:35;;;;;;;0.70;0.70;;;;;;;3.43;100.00;94277.41;5074751;28;20201;-69
2023/11/28 09:50:05;;;;;;;0.70;0.70;;;;;;;3.38;100.00;94284.97;5075495;28;20197;-69
2023/11/28 09:52:33;;;;;;;1.27;1.10;;;;;;;3.30;100.00;94290.28;5075085;28;20228;-69
2023/11/28 09:55:01;;;;;;;0.90;0.90;;;;;;;3.12;100.00;94302.84;5075083;28;20199;-69
2023/11/28 09:57:32;;;;;;;0.80;0.80;;;;;;;3.23;100.00;94303.19;5075035;28;20209;-69
2023/11/28 09:59:58;;;;;;;0.90;0.80;;;;;;;2.98;100.00;94303.63;5074194;28;20223;-69
2023/11/28 10:02:27;;;;;;;0.60;0.60;;;;;;;3.25;100.00;94316.03;5075149;28;20234;-69
2023/11/28 10:04:54;;;;;;;0.60;0.60;;;;;;;2.99;100.00;94333.03;5075974;28;20647;-69
2023/11/28 10:07:28;;;;;;;1.30;1.00;;;;;;;3.34;100.00;94327.94;5074462;28;20211;-69
2023/11/28 10:09:56;;;;;;;0.67;0.67;;;;;;;3.03;100.00;94340.31;5075154;28;21436;-69
2023/11/28 10:12:22;;;;;;;1.23;0.90;;;;;;;3.02;100.00;94343.91;5078928;28;20250;-70
2023/11/28 10:14:49;;;;;;;0.50;0.50;;;;;;;3.10;100.00;94339.41;5078345;28;20211;-69
2023/11/28 10:17:16;;;;;;;0.83;0.70;;;;;;;3.16;100.00;94345.72;5077774;28;20574;-69
2023/11/28 10:19:44;;;;;;;0.83;0.83;;;;;;;3.21;100.00;94348.59;5079413;28;20213;-70
2023/11/28 10:22:12;;;;;;;0.63;0.60;;;;;;;2.94;100.00;94348.38;5078697;28;20607;-70
2023/11/28 10:24:40;;;;;;;0.73;0.70;;;;;;;3.06;100.00;94355.56;5078627;28;20192;-69
2023/11/28 10:27:07;;;;;;;0.70;0.70;;;;;;;3.58;100.00;94351.91;5078276;28;20200;-69
2023/11/28 10:29:33;;;;;;;0.80;0.80;;;;;;;3.20;100.00;94352.19;5079806;28;20237;-70
2023/11/28 10:32:00;;;;;;;0.70;0.70;;;;;;;3.02;100.00;94360.31;5079051;28;20206;-69
2023/11/28 10:34:28;;;;;;;0.60;0.60;;;;;;;3.04;100.00;94373.13;5078425;28;20213;-69
2023/11/28 10:36:58;;;;;;;0.93;0.83;;;;;;;3.34;100.00;94374.81;5079261;28;20205;-70
2023/11/28 10:39:25;;;;;;;0.80;0.80;;;;;;;2.97;100.00;94382.63;5079323;28;20221;-69
2023/11/28 10:41:53;;;;;;;0.70;0.70;;;;;;;3.23;100.00;94386.47;5078614;28;20201;-70
2023/11/28 10:44:21;;;;;;;0.70;0.70;;;;;;;3.08;100.00;94400.41;5079376;28;20285;-69
2023/11/28 10:46:49;;;;;;;0.80;0.80;;;;;;;2.97;100.00;94424.25;5078700;28;20196;-69
2023/11/28 10:49:15;;;;;;;1.37;0.87;;;;;;;3.01;100.00;94412.50;5077199;28;20257;-69
2023/11/28 10:51:42;;;;;;;2.23;0.90;;;;;;;3.12;100.00;94410.31;5078825;28;20664;-69
2023/11/28 10:54:11;;;;;;;0.70;0.70;;;;;;;3.12;100.00;94412.91;5077905;28;20224;-69
2023/11/28 10:56:46;;;;;;;0.60;0.60;;;;;;;3.33;100.00;94420.03;5078356;28;20207;-71
2023/11/28 10:59:22;;;;;;;0.80;0.80;;;;;;;3.30;100.00;94430.81;5076212;28;20221;-72
2023/11/28 11:01:49;;;;;;;0.80;0.80;;;;;;;3.13;100.00;94424.94;5076992;28;20197;-70
2023/11/28 11:04:16;;;;;;;0.70;0.70;;;;;;;3.04;100.00;94432.97;5077563;28;20873;-68
2023/11/28 11:06:43;;;;;;;0.70;0.70;;;;;;;3.09;100.00;94425.44;5077439;28;20203;-69
2023/11/28 11:09:12;;;;;;;0.73;0.73;;;;;;;3.10;100.00;94427.06;5078420;28;20215;-70
2023/11/28 11:11:40;;;;;;;0.80;0.80;;;;;;;3.13;100.00;94434.50;5078168;28;20673;-69
2023/11/28 11:14:18;;;;;;;0.70;0.70;;;;;;;3.37;100.00;94439.50;5077780;28;20401;-71
2023/11/28 11:16:55;;;;;;;0.90;0.80;;;;;;;3.30;100.00;94441.22;5077465;28;20212;-69
2023/11/28 11:19:22;;;;;;;0.67;0.67;;;;;;;3.13;100.00;94443.16;5078401;28;20227;-69
2023/11/28 11:21:57;;;;;;;0.70;0.70;;;;;;;3.40;100.00;94452.97;5076801;28;20207;-72
2023/11/28 11:24:26;;;;;;;0.60;0.60;;;;;;;3.21;100.00;94463.88;5078804;28;20204;-72
2023/11/28 11:26:54;;;;;;;0.60;0.60;;;;;;;3.16;100.00;94462.81;5077731;28;20689;-69
2023/11/28 11:29:37;;;;;;;0.60;0.57;;;;;;;3.40;100.00;94473.81;5077837;28;20719;-69
2023/11/28 11:32:10;;;;;;;1.33;0.70;;;;;;;3.28;100.00;94483.00;5077942;28;20204;-69
2023/11/28 11:34:40;;;;;;;0.90;0.90;;;;;;;3.14;100.00;94489.00;5078251;28;20591;-69